sensor_id;sensor_type;location;lat;lon;timestamp;P1;durP1;ratioP1;P2;durP2;ratioP2
10596;SDS011;5346;48.766;8.674;2023-02-22T00:00:40;9.93;;;4.50;;
10596;SDS011;5346;48.766;8.674;2023-02-22T00:03:15;13.80;;;4.53;;
10596;SDS011;5346;48.766;8.674;2023-02-22T00:06:04;12.40;;;4.67;;
10596;SDS011;5346;48.766;8.674;2023-02-22T00:08:33;13.03;;;4.57;;
10596;SDS011;5346;48.766;8.674;2023-02-22T00:11:08;12.23;;;4.23;;
10596;SDS011;5346;48.766;8.674;2023-02-22T00:13:36;9.43;;;4.27;;
10596;SDS011;5346;48.766;8.674;2023-02-22T00:16:14;10.40;;;5.07;;
10596;SDS011;5346;48.766;8.674;2023-02-22T00:18:49;8.07;;;3.57;;
10596;SDS011;5346;48.766;8.674;2023-02-22T00:21:25;10.03;;;3.83;;
10596;SDS011;5346;48.766;8.674;2023-02-22T00:23:59;9.07;;;4.23;;
10596;SDS011;5346;48.766;8.674;2023-02-22T00:26:42;8.67;;;4.27;;
10596;SDS011;5346;48.766;8.674;2023-02-22T00:29:15;10.67;;;4.50;;
10596;SDS011;5346;48.766;8.674;2023-02-22T00:31:43;9.47;;;4.40;;
10596;SDS011;5346;48.766;8.674;2023-02-22T00:34:17;9.00;;;3.70;;
10596;SDS011;5346;48.766;8.674;2023-02-22T00:36:51;8.97;;;3.80;;
10596;SDS011;5346;48.766;8.674;2023-02-22T00:39:26;9.70;;;4.20;;
10596;SDS011;5346;48.766;8.674;2023-02-22T00:41:53;8.30;;;3.77;;
10596;SDS011;5346;48.766;8.674;2023-02-22T00:44:28;9.10;;;4.57;;
10596;SDS011;5346;48.766;8.674;2023-02-22T00:46:55;7.63;;;3.70;;
10596;SDS011;5346;48.766;8.674;2023-02-22T00:49:29;9.60;;;3.67;;
10596;SDS011;5346;48.766;8.674;2023-02-22T00:51:57;9.40;;;3.70;;
10596;SDS011;5346;48.766;8.674;2023-02-22T00:54:31;11.60;;;3.80;;
10596;SDS011;5346;48.766;8.674;2023-02-22T00:57:05;7.83;;;3.83;;
10596;SDS011;5346;48.766;8.674;2023-02-22T00:59:39;5.20;;;2.90;;
10596;SDS011;5346;48.766;8.674;2023-02-22T01:02:06;4.57;;;2.97;;
10596;SDS011;5346;48.766;8.674;2023-02-22T01:04:41;7.87;;;2.70;;
10596;SDS011;5346;48.766;8.674;2023-02-22T01:07:09;5.03;;;2.87;;
10596;SDS011;5346;48.766;8.674;2023-02-22T01:09:43;5.40;;;2.70;;
10596;SDS011;5346;48.766;8.674;2023-02-22T01:12:18;8.30;;;3.10;;
10596;SDS011;5346;48.766;8.674;2023-02-22T01:14:52;7.20;;;2.93;;
10596;SDS011;5346;48.766;8.674;2023-02-22T01:17:22;4.57;;;2.60;;
10596;SDS011;5346;48.766;8.674;2023-02-22T01:19:58;3.50;;;2.47;;
10596;SDS011;5346;48.766;8.674;2023-02-22T01:22:25;3.73;;;2.37;;
10596;SDS011;5346;48.766;8.674;2023-02-22T01:24:59;7.67;;;2.73;;
10596;SDS011;5346;48.766;8.674;2023-02-22T01:27:34;7.03;;;2.43;;
10596;SDS011;5346;48.766;8.674;2023-02-22T01:30:09;5.50;;;2.60;;
10596;SDS011;5346;48.766;8.674;2023-02-22T01:32:44;4.43;;;2.40;;
10596;SDS011;5346;48.766;8.674;2023-02-22T01:35:23;6.47;;;2.93;;
10596;SDS011;5346;48.766;8.674;2023-02-22T01:37:59;5.60;;;2.87;;
10596;SDS011;5346;48.766;8.674;2023-02-22T01:40:35;7.63;;;3.03;;
10596;SDS011;5346;48.766;8.674;2023-02-22T01:43:13;6.10;;;2.80;;
10596;SDS011;5346;48.766;8.674;2023-02-22T01:48:23;3.90;;;2.23;;
10596;SDS011;5346;48.766;8.674;2023-02-22T01:51:15;4.37;;;2.70;;
10596;SDS011;5346;48.766;8.674;2023-02-22T01:53:54;9.87;;;2.70;;
10596;SDS011;5346;48.766;8.674;2023-02-22T01:56:31;4.30;;;2.70;;
10596;SDS011;5346;48.766;8.674;2023-02-22T01:59:09;3.13;;;2.23;;
10596;SDS011;5346;48.766;8.674;2023-02-22T02:01:44;4.57;;;2.53;;
10596;SDS011;5346;48.766;8.674;2023-02-22T02:04:25;4.40;;;2.80;;
10596;SDS011;5346;48.766;8.674;2023-02-22T02:06:53;5.13;;;2.27;;
10596;SDS011;5346;48.766;8.674;2023-02-22T02:12:07;4.60;;;2.70;;
10596;SDS011;5346;48.766;8.674;2023-02-22T02:14:44;5.80;;;2.10;;
10596;SDS011;5346;48.766;8.674;2023-02-22T02:17:18;4.77;;;2.47;;
10596;SDS011;5346;48.766;8.674;2023-02-22T02:22:47;5.30;;;2.37;;
10596;SDS011;5346;48.766;8.674;2023-02-22T02:25:44;4.40;;;2.70;;
10596;SDS011;5346;48.766;8.674;2023-02-22T02:31:55;4.77;;;2.40;;
10596;SDS011;5346;48.766;8.674;2023-02-22T02:34:32;4.30;;;2.17;;
10596;SDS011;5346;48.766;8.674;2023-02-22T02:37:35;4.57;;;2.00;;
10596;SDS011;5346;48.766;8.674;2023-02-22T02:40:46;3.00;;;2.00;;
10596;SDS011;5346;48.766;8.674;2023-02-22T02:43:31;3.23;;;1.70;;
10596;SDS011;5346;48.766;8.674;2023-02-22T02:46:34;3.33;;;2.00;;
10596;SDS011;5346;48.766;8.674;2023-02-22T02:49:43;3.23;;;2.30;;
10596;SDS011;5346;48.766;8.674;2023-02-22T02:52:30;3.37;;;2.27;;
10596;SDS011;5346;48.766;8.674;2023-02-22T02:54:59;4.17;;;2.10;;
10596;SDS011;5346;48.766;8.674;2023-02-22T02:57:36;3.53;;;2.50;;
10596;SDS011;5346;48.766;8.674;2023-02-22T03:00:07;5.20;;;2.13;;
10596;SDS011;5346;48.766;8.674;2023-02-22T03:03:01;4.50;;;2.20;;
10596;SDS011;5346;48.766;8.674;2023-02-22T03:14:41;2.67;;;1.97;;
10596;SDS011;5346;48.766;8.674;2023-02-22T03:17:54;5.70;;;2.23;;
10596;SDS011;5346;48.766;8.674;2023-02-22T03:20:46;4.60;;;2.67;;
10596;SDS011;5346;48.766;8.674;2023-02-22T03:23:41;4.00;;;2.60;;
10596;SDS011;5346;48.766;8.674;2023-02-22T03:26:23;3.87;;;2.07;;
10596;SDS011;5346;48.766;8.674;2023-02-22T03:29:04;5.83;;;2.20;;
10596;SDS011;5346;48.766;8.674;2023-02-22T03:31:43;2.57;;;1.97;;
10596;SDS011;5346;48.766;8.674;2023-02-22T03:34:37;7.60;;;2.30;;
10596;SDS011;5346;48.766;8.674;2023-02-22T03:37:28;4.43;;;2.50;;
10596;SDS011;5346;48.766;8.674;2023-02-22T03:40:06;4.07;;;2.37;;
10596;SDS011;5346;48.766;8.674;2023-02-22T03:42:44;4.03;;;2.30;;
10596;SDS011;5346;48.766;8.674;2023-02-22T03:45:21;4.67;;;2.57;;
10596;SDS011;5346;48.766;8.674;2023-02-22T03:47:52;5.63;;;2.53;;
10596;SDS011;5346;48.766;8.674;2023-02-22T03:50:35;6.87;;;2.50;;
10596;SDS011;5346;48.766;8.674;2023-02-22T03:53:04;7.60;;;2.40;;
10596;SDS011;5346;48.766;8.674;2023-02-22T03:55:39;4.93;;;2.60;;
10596;SDS011;5346;48.766;8.674;2023-02-22T03:58:08;6.30;;;3.03;;
10596;SDS011;5346;48.766;8.674;2023-02-22T04:00:43;3.13;;;2.47;;
10596;SDS011;5346;48.766;8.674;2023-02-22T04:03:18;6.07;;;2.90;;
10596;SDS011;5346;48.766;8.674;2023-02-22T04:05:53;4.13;;;2.53;;
10596;SDS011;5346;48.766;8.674;2023-02-22T04:08:21;3.67;;;2.40;;
10596;SDS011;5346;48.766;8.674;2023-02-22T04:10:55;4.60;;;3.20;;
10596;SDS011;5346;48.766;8.674;2023-02-22T04:13:24;3.70;;;2.77;;
10596;SDS011;5346;48.766;8.674;2023-02-22T04:16:00;3.87;;;2.47;;
10596;SDS011;5346;48.766;8.674;2023-02-22T04:18:27;3.97;;;2.80;;
10596;SDS011;5346;48.766;8.674;2023-02-22T04:21:02;3.83;;;2.57;;
10596;SDS011;5346;48.766;8.674;2023-02-22T04:23:30;4.33;;;2.80;;
10596;SDS011;5346;48.766;8.674;2023-02-22T04:25:57;5.10;;;2.50;;
10596;SDS011;5346;48.766;8.674;2023-02-22T04:28:32;3.83;;;2.03;;
10596;SDS011;5346;48.766;8.674;2023-02-22T04:31:00;3.73;;;2.57;;
10596;SDS011;5346;48.766;8.674;2023-02-22T04:33:34;3.80;;;2.40;;
10596;SDS011;5346;48.766;8.674;2023-02-22T04:36:08;4.97;;;2.57;;
10596;SDS011;5346;48.766;8.674;2023-02-22T04:38:43;7.33;;;2.80;;
10596;SDS011;5346;48.766;8.674;2023-02-22T04:41:17;3.83;;;2.37;;
10596;SDS011;5346;48.766;8.674;2023-02-22T04:43:52;2.90;;;2.40;;
10596;SDS011;5346;48.766;8.674;2023-02-22T04:46:19;4.07;;;2.40;;
10596;SDS011;5346;48.766;8.674;2023-02-22T04:48:54;3.40;;;2.33;;
10596;SDS011;5346;48.766;8.674;2023-02-22T04:51:23;3.67;;;2.30;;
10596;SDS011;5346;48.766;8.674;2023-02-22T04:53:57;4.03;;;1.90;;
10596;SDS011;5346;48.766;8.674;2023-02-22T04:56:24;3.23;;;2.20;;
10596;SDS011;5346;48.766;8.674;2023-02-22T04:58:58;3.57;;;2.30;;
10596;SDS011;5346;48.766;8.674;2023-02-22T05:01:29;2.87;;;1.93;;
10596;SDS011;5346;48.766;8.674;2023-02-22T05:04:07;2.40;;;1.70;;
10596;SDS011;5346;48.766;8.674;2023-02-22T05:06:47;2.20;;;1.77;;
10596;SDS011;5346;48.766;8.674;2023-02-22T05:09:22;3.60;;;1.87;;
10596;SDS011;5346;48.766;8.674;2023-02-22T05:11:56;4.33;;;1.87;;
10596;SDS011;5346;48.766;8.674;2023-02-22T05:14:30;3.10;;;1.53;;
10596;SDS011;5346;48.766;8.674;2023-02-22T05:16:57;2.90;;;1.83;;
10596;SDS011;5346;48.766;8.674;2023-02-22T05:19:33;2.87;;;1.80;;
10596;SDS011;5346;48.766;8.674;2023-02-22T05:22:07;2.10;;;1.60;;
10596;SDS011;5346;48.766;8.674;2023-02-22T05:24:34;2.70;;;1.73;;
10596;SDS011;5346;48.766;8.674;2023-02-22T05:27:02;2.37;;;1.50;;
10596;SDS011;5346;48.766;8.674;2023-02-22T05:29:36;2.43;;;1.40;;
10596;SDS011;5346;48.766;8.674;2023-02-22T05:32:04;2.50;;;1.70;;
10596;SDS011;5346;48.766;8.674;2023-02-22T05:34:38;3.93;;;1.50;;
10596;SDS011;5346;48.766;8.674;2023-02-22T05:37:06;1.90;;;1.50;;
10596;SDS011;5346;48.766;8.674;2023-02-22T05:39:40;2.00;;;1.43;;
10596;SDS011;5346;48.766;8.674;2023-02-22T05:42:07;2.03;;;1.30;;
10596;SDS011;5346;48.766;8.674;2023-02-22T05:44:42;3.30;;;1.50;;
10596;SDS011;5346;48.766;8.674;2023-02-22T05:47:09;2.63;;;1.20;;
10596;SDS011;5346;48.766;8.674;2023-02-22T05:49:43;1.53;;;1.00;;
10596;SDS011;5346;48.766;8.674;2023-02-22T05:52:10;1.53;;;1.10;;
10596;SDS011;5346;48.766;8.674;2023-02-22T05:54:44;1.80;;;1.20;;
10596;SDS011;5346;48.766;8.674;2023-02-22T05:57:18;2.83;;;1.00;;
10596;SDS011;5346;48.766;8.674;2023-02-22T05:59:45;3.33;;;1.37;;
10596;SDS011;5346;48.766;8.674;2023-02-22T06:02:19;4.73;;;1.10;;
10596;SDS011;5346;48.766;8.674;2023-02-22T06:04:53;4.03;;;1.40;;
10596;SDS011;5346;48.766;8.674;2023-02-22T06:07:34;1.83;;;1.40;;
10596;SDS011;5346;48.766;8.674;2023-02-22T06:10:01;1.50;;;1.10;;
10596;SDS011;5346;48.766;8.674;2023-02-22T06:12:36;3.63;;;1.57;;
10596;SDS011;5346;48.766;8.674;2023-02-22T06:15:10;2.53;;;1.50;;
10596;SDS011;5346;48.766;8.674;2023-02-22T06:17:46;1.67;;;1.27;;
10596;SDS011;5346;48.766;8.674;2023-02-22T06:20:15;2.57;;;1.40;;
10596;SDS011;5346;48.766;8.674;2023-02-22T06:26:23;2.10;;;0.90;;
10596;SDS011;5346;48.766;8.674;2023-02-22T06:29:00;1.27;;;1.07;;
10596;SDS011;5346;48.766;8.674;2023-02-22T06:31:34;1.57;;;1.03;;
10596;SDS011;5346;48.766;8.674;2023-02-22T06:34:02;1.17;;;0.90;;
10596;SDS011;5346;48.766;8.674;2023-02-22T06:36:36;1.33;;;1.03;;
10596;SDS011;5346;48.766;8.674;2023-02-22T06:39:03;1.90;;;1.30;;
10596;SDS011;5346;48.766;8.674;2023-02-22T06:41:52;2.40;;;1.23;;
10596;SDS011;5346;48.766;8.674;2023-02-22T06:44:21;2.27;;;1.43;;
10596;SDS011;5346;48.766;8.674;2023-02-22T06:46:56;7.73;;;1.40;;
10596;SDS011;5346;48.766;8.674;2023-02-22T06:49:32;1.47;;;1.20;;
10596;SDS011;5346;48.766;8.674;2023-02-22T06:54:47;5.93;;;1.53;;
10596;SDS011;5346;48.766;8.674;2023-02-22T06:57:28;1.53;;;1.23;;
10596;SDS011;5346;48.766;8.674;2023-02-22T07:00:02;2.27;;;1.50;;
10596;SDS011;5346;48.766;8.674;2023-02-22T07:02:32;2.30;;;1.40;;
10596;SDS011;5346;48.766;8.674;2023-02-22T07:05:06;2.40;;;1.30;;
10596;SDS011;5346;48.766;8.674;2023-02-22T07:07:38;2.15;;;1.48;;
10596;SDS011;5346;48.766;8.674;2023-02-22T07:10:17;1.57;;;1.17;;
10596;SDS011;5346;48.766;8.674;2023-02-22T07:12:50;1.53;;;1.37;;
10596;SDS011;5346;48.766;8.674;2023-02-22T07:15:24;1.97;;;1.30;;
10596;SDS011;5346;48.766;8.674;2023-02-22T07:18:00;1.87;;;1.30;;
10596;SDS011;5346;48.766;8.674;2023-02-22T07:20:33;1.80;;;1.30;;
10596;SDS011;5346;48.766;8.674;2023-02-22T07:23:07;4.27;;;1.27;;
10596;SDS011;5346;48.766;8.674;2023-02-22T07:25:42;3.13;;;1.20;;
10596;SDS011;5346;48.766;8.674;2023-02-22T07:28:15;1.53;;;1.20;;
10596;SDS011;5346;48.766;8.674;2023-02-22T07:30:43;2.97;;;1.00;;
10596;SDS011;5346;48.766;8.674;2023-02-22T07:33:17;2.10;;;1.27;;
10596;SDS011;5346;48.766;8.674;2023-02-22T07:35:51;1.50;;;1.13;;
10596;SDS011;5346;48.766;8.674;2023-02-22T07:38:25;1.77;;;1.30;;
10596;SDS011;5346;48.766;8.674;2023-02-22T07:41:00;2.13;;;1.13;;
10596;SDS011;5346;48.766;8.674;2023-02-22T07:43:34;1.05;;;0.95;;
10596;SDS011;5346;48.766;8.674;2023-02-22T07:46:02;1.20;;;1.10;;
10596;SDS011;5346;48.766;8.674;2023-02-22T07:48:36;1.70;;;1.33;;
10596;SDS011;5346;48.766;8.674;2023-02-22T07:51:13;1.50;;;1.20;;
10596;SDS011;5346;48.766;8.674;2023-02-22T07:53:47;3.47;;;1.48;;
10596;SDS011;5346;48.766;8.674;2023-02-22T07:56:35;2.63;;;1.52;;
10596;SDS011;5346;48.766;8.674;2023-02-22T07:59:10;1.25;;;1.15;;
10596;SDS011;5346;48.766;8.674;2023-02-22T08:01:43;0.98;;;0.93;;
10596;SDS011;5346;48.766;8.674;2023-02-22T08:04:21;2.92;;;1.30;;
10596;SDS011;5346;48.766;8.674;2023-02-22T08:06:49;2.63;;;1.40;;
10596;SDS011;5346;48.766;8.674;2023-02-22T08:09:23;3.35;;;1.75;;
10596;SDS011;5346;48.766;8.674;2023-02-22T08:11:56;3.13;;;2.10;;
10596;SDS011;5346;48.766;8.674;2023-02-22T08:14:31;3.10;;;2.03;;
10596;SDS011;5346;48.766;8.674;2023-02-22T08:17:04;3.10;;;1.92;;
10596;SDS011;5346;48.766;8.674;2023-02-22T08:19:34;2.58;;;1.92;;
10596;SDS011;5346;48.766;8.674;2023-02-22T08:22:08;2.40;;;2.00;;
10596;SDS011;5346;48.766;8.674;2023-02-22T08:24:42;3.28;;;1.60;;
10596;SDS011;5346;48.766;8.674;2023-02-22T08:27:16;2.78;;;1.90;;
10596;SDS011;5346;48.766;8.674;2023-02-22T08:29:53;3.47;;;1.80;;
10596;SDS011;5346;48.766;8.674;2023-02-22T08:32:28;3.17;;;1.90;;
10596;SDS011;5346;48.766;8.674;2023-02-22T08:35:02;5.28;;;1.90;;
10596;SDS011;5346;48.766;8.674;2023-02-22T08:37:29;2.92;;;1.70;;
10596;SDS011;5346;48.766;8.674;2023-02-22T08:40:04;3.30;;;2.05;;
10596;SDS011;5346;48.766;8.674;2023-02-22T08:42:40;4.80;;;1.98;;
10596;SDS011;5346;48.766;8.674;2023-02-22T08:45:08;3.80;;;1.90;;
10596;SDS011;5346;48.766;8.674;2023-02-22T08:47:43;1.98;;;1.67;;
10596;SDS011;5346;48.766;8.674;2023-02-22T08:50:21;3.40;;;1.90;;
10596;SDS011;5346;48.766;8.674;2023-02-22T08:52:58;2.70;;;1.85;;
10596;SDS011;5346;48.766;8.674;2023-02-22T08:55:34;2.58;;;2.15;;
10596;SDS011;5346;48.766;8.674;2023-02-22T08:58:32;5.72;;;2.28;;
10596;SDS011;5346;48.766;8.674;2023-02-22T09:01:06;2.28;;;1.73;;
10596;SDS011;5346;48.766;8.674;2023-02-22T09:03:58;5.55;;;1.90;;
10596;SDS011;5346;48.766;8.674;2023-02-22T09:06:32;2.92;;;1.83;;
10596;SDS011;5346;48.766;8.674;2023-02-22T09:09:06;3.90;;;1.80;;
10596;SDS011;5346;48.766;8.674;2023-02-22T09:11:40;3.78;;;2.10;;
10596;SDS011;5346;48.766;8.674;2023-02-22T09:14:08;4.53;;;1.70;;
10596;SDS011;5346;48.766;8.674;2023-02-22T09:16:45;4.78;;;2.17;;
10596;SDS011;5346;48.766;8.674;2023-02-22T09:19:13;2.30;;;2.00;;
10596;SDS011;5346;48.766;8.674;2023-02-22T09:21:54;3.53;;;2.47;;
10596;SDS011;5346;48.766;8.674;2023-02-22T09:24:29;3.47;;;2.33;;
10596;SDS011;5346;48.766;8.674;2023-02-22T09:26:57;4.60;;;2.63;;
10596;SDS011;5346;48.766;8.674;2023-02-22T09:29:32;4.05;;;2.60;;
10596;SDS011;5346;48.766;8.674;2023-02-22T09:31:59;5.20;;;2.95;;
10596;SDS011;5346;48.766;8.674;2023-02-22T09:34:33;4.53;;;2.90;;
10596;SDS011;5346;48.766;8.674;2023-02-22T09:37:06;6.50;;;3.30;;
10596;SDS011;5346;48.766;8.674;2023-02-22T09:39:34;2.88;;;2.47;;
10596;SDS011;5346;48.766;8.674;2023-02-22T09:42:27;5.88;;;2.97;;
10596;SDS011;5346;48.766;8.674;2023-02-22T09:48:20;3.70;;;2.30;;
10596;SDS011;5346;48.766;8.674;2023-02-22T09:50:51;5.80;;;3.30;;
10596;SDS011;5346;48.766;8.674;2023-02-22T09:53:37;4.57;;;3.08;;
10596;SDS011;5346;48.766;8.674;2023-02-22T09:56:26;6.80;;;3.15;;
10596;SDS011;5346;48.766;8.674;2023-02-22T09:59:04;7.45;;;3.20;;
10596;SDS011;5346;48.766;8.674;2023-02-22T10:01:35;6.32;;;3.13;;
10596;SDS011;5346;48.766;8.674;2023-02-22T10:04:23;7.00;;;3.30;;
10596;SDS011;5346;48.766;8.674;2023-02-22T10:07:19;7.85;;;3.22;;
10596;SDS011;5346;48.766;8.674;2023-02-22T10:10:13;5.75;;;3.35;;
10596;SDS011;5346;48.766;8.674;2023-02-22T10:21:40;7.13;;;3.67;;
10596;SDS011;5346;48.766;8.674;2023-02-22T10:27:18;8.05;;;3.65;;
10596;SDS011;5346;48.766;8.674;2023-02-22T10:29:59;6.90;;;3.50;;
10596;SDS011;5346;48.766;8.674;2023-02-22T10:35:49;8.93;;;4.03;;
10596;SDS011;5346;48.766;8.674;2023-02-22T10:41:02;6.75;;;3.65;;
10596;SDS011;5346;48.766;8.674;2023-02-22T10:43:51;6.03;;;3.85;;
10596;SDS011;5346;48.766;8.674;2023-02-22T10:46:26;7.55;;;4.05;;
10596;SDS011;5346;48.766;8.674;2023-02-22T10:49:02;5.38;;;3.65;;
10596;SDS011;5346;48.766;8.674;2023-02-22T10:51:34;6.15;;;3.67;;
10596;SDS011;5346;48.766;8.674;2023-02-22T10:57:03;3.85;;;3.20;;
10596;SDS011;5346;48.766;8.674;2023-02-22T10:59:38;6.50;;;3.10;;
10596;SDS011;5346;48.766;8.674;2023-02-22T11:05:24;6.03;;;3.50;;
10596;SDS011;5346;48.766;8.674;2023-02-22T11:08:13;6.57;;;3.35;;
10596;SDS011;5346;48.766;8.674;2023-02-22T11:10:56;5.85;;;4.40;;
10596;SDS011;5346;48.766;8.674;2023-02-22T11:13:32;7.80;;;3.92;;
10596;SDS011;5346;48.766;8.674;2023-02-22T11:16:17;7.97;;;3.95;;
10596;SDS011;5346;48.766;8.674;2023-02-22T11:18:50;5.68;;;3.80;;
10596;SDS011;5346;48.766;8.674;2023-02-22T11:21:40;5.75;;;4.22;;
10596;SDS011;5346;48.766;8.674;2023-02-22T11:24:09;7.20;;;3.83;;
10596;SDS011;5346;48.766;8.674;2023-02-22T11:26:50;10.23;;;5.82;;
10596;SDS011;5346;48.766;8.674;2023-02-22T11:29:24;12.68;;;8.48;;
10596;SDS011;5346;48.766;8.674;2023-02-22T11:32:10;15.75;;;11.43;;
10596;SDS011;5346;48.766;8.674;2023-02-22T11:34:47;7.20;;;4.30;;
10596;SDS011;5346;48.766;8.674;2023-02-22T11:37:35;11.23;;;3.88;;
10596;SDS011;5346;48.766;8.674;2023-02-22T11:40:17;6.47;;;4.10;;
10596;SDS011;5346;48.766;8.674;2023-02-22T11:43:36;4.90;;;4.05;;
10596;SDS011;5346;48.766;8.674;2023-02-22T11:45:54;6.80;;;4.03;;
10596;SDS011;5346;48.766;8.674;2023-02-22T11:48:36;5.00;;;3.88;;
10596;SDS011;5346;48.766;8.674;2023-02-22T11:51:08;5.13;;;3.90;;
10596;SDS011;5346;48.766;8.674;2023-02-22T11:53:52;5.82;;;3.83;;
10596;SDS011;5346;48.766;8.674;2023-02-22T11:57:13;5.95;;;4.50;;
10596;SDS011;5346;48.766;8.674;2023-02-22T12:05:30;6.63;;;4.20;;
10596;SDS011;5346;48.766;8.674;2023-02-22T12:15:07;6.55;;;4.38;;
10596;SDS011;5346;48.766;8.674;2023-02-22T12:18:08;7.70;;;4.15;;
10596;SDS011;5346;48.766;8.674;2023-02-22T12:21:07;6.32;;;4.20;;
10596;SDS011;5346;48.766;8.674;2023-02-22T12:26:38;9.35;;;4.57;;
10596;SDS011;5346;48.766;8.674;2023-02-22T12:32:12;6.32;;;4.72;;
10596;SDS011;5346;48.766;8.674;2023-02-22T12:35:10;7.15;;;4.30;;
10596;SDS011;5346;48.766;8.674;2023-02-22T12:37:55;8.38;;;4.47;;
10596;SDS011;5346;48.766;8.674;2023-02-22T12:43:47;8.95;;;4.85;;
10596;SDS011;5346;48.766;8.674;2023-02-22T12:46:43;7.47;;;4.80;;
10596;SDS011;5346;48.766;8.674;2023-02-22T12:52:09;7.68;;;4.47;;
10596;SDS011;5346;48.766;8.674;2023-02-22T12:54:50;5.88;;;3.90;;
10596;SDS011;5346;48.766;8.674;2023-02-22T13:15:13;6.53;;;4.63;;
10596;SDS011;5346;48.766;8.674;2023-02-22T13:18:01;10.25;;;5.40;;
10596;SDS011;5346;48.766;8.674;2023-02-22T13:23:41;10.18;;;5.13;;
10596;SDS011;5346;48.766;8.674;2023-02-22T13:26:25;8.45;;;4.75;;
10596;SDS011;5346;48.766;8.674;2023-02-22T13:29:18;10.55;;;4.80;;
10596;SDS011;5346;48.766;8.674;2023-02-22T13:31:53;9.50;;;5.07;;
10596;SDS011;5346;48.766;8.674;2023-02-22T13:40:36;8.45;;;4.55;;
10596;SDS011;5346;48.766;8.674;2023-02-22T13:43:32;9.20;;;4.85;;
10596;SDS011;5346;48.766;8.674;2023-02-22T13:52:13;8.00;;;4.78;;
10596;SDS011;5346;48.766;8.674;2023-02-22T13:55:03;7.85;;;4.32;;
10596;SDS011;5346;48.766;8.674;2023-02-22T13:57:49;7.88;;;5.03;;
10596;SDS011;5346;48.766;8.674;2023-02-22T14:05:56;6.57;;;4.78;;
10596;SDS011;5346;48.766;8.674;2023-02-22T14:16:29;12.35;;;5.45;;
10596;SDS011;5346;48.766;8.674;2023-02-22T14:19:00;8.23;;;5.85;;
10596;SDS011;5346;48.766;8.674;2023-02-22T14:21:57;12.18;;;5.53;;
10596;SDS011;5346;48.766;8.674;2023-02-22T14:24:40;8.52;;;5.43;;
10596;SDS011;5346;48.766;8.674;2023-02-22T14:27:17;9.20;;;5.57;;
10596;SDS011;5346;48.766;8.674;2023-02-22T14:30:03;7.68;;;5.70;;
10596;SDS011;5346;48.766;8.674;2023-02-22T14:32:38;13.73;;;6.45;;
10596;SDS011;5346;48.766;8.674;2023-02-22T14:35:08;8.98;;;6.25;;
10596;SDS011;5346;48.766;8.674;2023-02-22T14:38:01;10.57;;;5.85;;
10596;SDS011;5346;48.766;8.674;2023-02-22T14:40:30;9.75;;;6.05;;
10596;SDS011;5346;48.766;8.674;2023-02-22T14:43:12;7.95;;;5.25;;
10596;SDS011;5346;48.766;8.674;2023-02-22T14:45:55;12.10;;;7.05;;
10596;SDS011;5346;48.766;8.674;2023-02-22T14:53:57;11.93;;;6.15;;
10596;SDS011;5346;48.766;8.674;2023-02-22T14:56:38;8.98;;;6.00;;
10596;SDS011;5346;48.766;8.674;2023-02-22T14:59:22;9.02;;;5.90;;
10596;SDS011;5346;48.766;8.674;2023-02-22T15:02:04;14.40;;;6.68;;
10596;SDS011;5346;48.766;8.674;2023-02-22T15:04:51;8.82;;;5.70;;
10596;SDS011;5346;48.766;8.674;2023-02-22T15:12:50;11.43;;;6.35;;
10596;SDS011;5346;48.766;8.674;2023-02-22T15:15:43;10.95;;;6.35;;
10596;SDS011;5346;48.766;8.674;2023-02-22T15:32:43;10.68;;;6.90;;
10596;SDS011;5346;48.766;8.674;2023-02-22T15:35:30;10.18;;;6.97;;
10596;SDS011;5346;48.766;8.674;2023-02-22T15:38:06;9.98;;;6.72;;
10596;SDS011;5346;48.766;8.674;2023-02-22T15:40:39;11.40;;;7.38;;
10596;SDS011;5346;48.766;8.674;2023-02-22T15:43:19;10.23;;;6.15;;
10596;SDS011;5346;48.766;8.674;2023-02-22T15:45:56;10.23;;;6.28;;
10596;SDS011;5346;48.766;8.674;2023-02-22T15:48:31;14.18;;;6.63;;
10596;SDS011;5346;48.766;8.674;2023-02-22T15:51:06;9.20;;;6.05;;
10596;SDS011;5346;48.766;8.674;2023-02-22T15:53:45;9.95;;;6.95;;
10596;SDS011;5346;48.766;8.674;2023-02-22T15:56:18;14.00;;;6.22;;
10596;SDS011;5346;48.766;8.674;2023-02-22T15:59:14;7.85;;;5.57;;
10596;SDS011;5346;48.766;8.674;2023-02-22T16:01:45;8.93;;;5.55;;
10596;SDS011;5346;48.766;8.674;2023-02-22T16:04:22;18.48;;;6.10;;
10596;SDS011;5346;48.766;8.674;2023-02-22T16:07:05;9.13;;;5.47;;
10596;SDS011;5346;48.766;8.674;2023-02-22T16:09:49;8.35;;;5.20;;
10596;SDS011;5346;48.766;8.674;2023-02-22T16:14:54;9.00;;;6.30;;
10596;SDS011;5346;48.766;8.674;2023-02-22T16:23:23;10.07;;;5.60;;
10596;SDS011;5346;48.766;8.674;2023-02-22T16:26:18;6.43;;;4.70;;
10596;SDS011;5346;48.766;8.674;2023-02-22T16:31:34;8.57;;;5.15;;
10596;SDS011;5346;48.766;8.674;2023-02-22T16:34:04;9.50;;;5.20;;
10596;SDS011;5346;48.766;8.674;2023-02-22T16:36:43;12.98;;;6.57;;
10596;SDS011;5346;48.766;8.674;2023-02-22T16:39:25;15.38;;;7.18;;
10596;SDS011;5346;48.766;8.674;2023-02-22T16:42:01;12.77;;;6.32;;
10596;SDS011;5346;48.766;8.674;2023-02-22T16:44:30;7.50;;;5.27;;
10596;SDS011;5346;48.766;8.674;2023-02-22T16:47:08;11.98;;;5.82;;
10596;SDS011;5346;48.766;8.674;2023-02-22T16:49:37;9.33;;;5.70;;
10596;SDS011;5346;48.766;8.674;2023-02-22T16:52:11;10.83;;;4.93;;
10596;SDS011;5346;48.766;8.674;2023-02-22T16:54:40;11.97;;;6.20;;
10596;SDS011;5346;48.766;8.674;2023-02-22T16:57:18;12.87;;;7.40;;
10596;SDS011;5346;48.766;8.674;2023-02-22T17:00:01;10.80;;;7.73;;
10596;SDS011;5346;48.766;8.674;2023-02-22T17:02:40;15.80;;;9.30;;
10596;SDS011;5346;48.766;8.674;2023-02-22T17:05:14;14.77;;;8.60;;
10596;SDS011;5346;48.766;8.674;2023-02-22T17:07:42;17.90;;;9.00;;
10596;SDS011;5346;48.766;8.674;2023-02-22T17:10:16;16.17;;;9.37;;
10596;SDS011;5346;48.766;8.674;2023-02-22T17:12:44;18.40;;;10.27;;
10596;SDS011;5346;48.766;8.674;2023-02-22T17:15:20;17.43;;;11.23;;
10596;SDS011;5346;48.766;8.674;2023-02-22T17:17:56;17.37;;;11.03;;
10596;SDS011;5346;48.766;8.674;2023-02-22T17:20:31;19.40;;;12.00;;
10596;SDS011;5346;48.766;8.674;2023-02-22T17:23:06;23.93;;;12.83;;
10596;SDS011;5346;48.766;8.674;2023-02-22T17:28:26;19.47;;;12.03;;
10596;SDS011;5346;48.766;8.674;2023-02-22T17:30:54;19.13;;;12.60;;
10596;SDS011;5346;48.766;8.674;2023-02-22T17:33:33;22.27;;;12.13;;
10596;SDS011;5346;48.766;8.674;2023-02-22T17:36:03;20.83;;;12.60;;
10596;SDS011;5346;48.766;8.674;2023-02-22T17:38:37;18.07;;;12.30;;
10596;SDS011;5346;48.766;8.674;2023-02-22T17:41:14;22.03;;;13.40;;
10596;SDS011;5346;48.766;8.674;2023-02-22T17:43:41;22.67;;;13.07;;
10596;SDS011;5346;48.766;8.674;2023-02-22T17:46:15;19.10;;;12.07;;
10596;SDS011;5346;48.766;8.674;2023-02-22T17:48:45;19.53;;;12.17;;
10596;SDS011;5346;48.766;8.674;2023-02-22T17:51:26;17.00;;;12.03;;
10596;SDS011;5346;48.766;8.674;2023-02-22T17:54:00;17.23;;;11.10;;
10596;SDS011;5346;48.766;8.674;2023-02-22T17:56:42;18.73;;;11.33;;
10596;SDS011;5346;48.766;8.674;2023-02-22T17:59:10;17.83;;;10.80;;
10596;SDS011;5346;48.766;8.674;2023-02-22T18:01:44;16.73;;;10.97;;
10596;SDS011;5346;48.766;8.674;2023-02-22T18:04:20;20.80;;;11.73;;
10596;SDS011;5346;48.766;8.674;2023-02-22T18:06:55;19.30;;;12.37;;
10596;SDS011;5346;48.766;8.674;2023-02-22T18:09:22;23.63;;;12.13;;
10596;SDS011;5346;48.766;8.674;2023-02-22T18:11:56;18.60;;;12.23;;
10596;SDS011;5346;48.766;8.674;2023-02-22T18:14:30;18.73;;;11.93;;
10596;SDS011;5346;48.766;8.674;2023-02-22T18:17:05;20.37;;;12.60;;
10596;SDS011;5346;48.766;8.674;2023-02-22T18:19:39;20.03;;;13.37;;
10596;SDS011;5346;48.766;8.674;2023-02-22T18:22:08;22.00;;;13.17;;
10596;SDS011;5346;48.766;8.674;2023-02-22T18:24:42;25.47;;;13.83;;
10596;SDS011;5346;48.766;8.674;2023-02-22T18:27:09;27.17;;;13.87;;
10596;SDS011;5346;48.766;8.674;2023-02-22T18:29:46;19.87;;;13.30;;
10596;SDS011;5346;48.766;8.674;2023-02-22T18:32:13;21.53;;;11.57;;
10596;SDS011;5346;48.766;8.674;2023-02-22T18:34:48;20.97;;;12.80;;
10596;SDS011;5346;48.766;8.674;2023-02-22T18:37:22;20.17;;;13.00;;
10596;SDS011;5346;48.766;8.674;2023-02-22T18:40:00;24.13;;;13.40;;